createdAt,value
2023-04-26T05:02:10.019Z,4.70
2023-04-26T05:04:38.475Z,4.60
2023-04-26T05:07:06.821Z,4.60
2023-04-26T05:09:34.942Z,4.70
2023-04-26T05:12:03.230Z,4.70
2023-04-26T05:14:31.648Z,4.70
2023-04-26T05:16:59.695Z,4.70
2023-04-26T05:19:29.209Z,4.80
2023-04-26T05:21:58.278Z,4.80
2023-04-26T05:24:26.487Z,4.90
2023-04-26T05:26:54.541Z,5.00
2023-04-26T05:29:22.629Z,5.10
2023-04-26T05:31:50.728Z,5.20
2023-04-26T05:34:19.077Z,5.40
2023-04-26T05:36:48.515Z,5.50
2023-04-26T05:39:16.588Z,5.50
2023-04-26T05:41:44.781Z,5.60
2023-04-26T05:44:13.058Z,5.70
2023-04-26T05:46:41.182Z,5.70
2023-04-26T05:49:09.275Z,5.80
2023-04-26T05:51:37.396Z,5.90
2023-04-26T05:54:07.006Z,5.90
2023-04-26T05:56:35.103Z,5.90
2023-04-26T05:59:03.125Z,6.00
2023-04-26T06:01:31.206Z,6.10
2023-04-26T06:04:00.832Z,6.10
2023-04-26T06:06:29.329Z,6.10
2023-04-26T06:08:57.425Z,6.30
2023-04-26T06:11:26.827Z,6.30
2023-04-26T06:13:55.567Z,6.30
2023-04-26T06:16:24.026Z,6.40
2023-04-26T06:18:52.083Z,6.50
2023-04-26T06:21:20.153Z,6.50
2023-04-26T06:23:48.199Z,6.60
2023-04-26T06:26:16.308Z,6.60
2023-04-26T06:28:45.756Z,6.60
2023-04-26T06:31:13.906Z,6.70
2023-04-26T06:33:43.426Z,6.80
2023-04-26T06:36:13.821Z,6.80
2023-04-26T06:38:41.927Z,6.90
2023-04-26T06:41:09.957Z,7.00
2023-04-26T06:43:38.089Z,7.00
2023-04-26T06:46:07.652Z,7.10
2023-04-26T06:48:35.687Z,7.20
2023-04-26T06:51:07.113Z,7.30
2023-04-26T06:53:35.216Z,7.50
2023-04-26T06:56:03.421Z,7.50
2023-04-26T06:58:31.527Z,7.70
2023-04-26T07:00:59.699Z,7.80
2023-04-26T07:03:29.398Z,7.90
2023-04-26T07:05:57.944Z,8.00
2023-04-26T07:08:26.026Z,8.10
2023-04-26T07:10:55.412Z,8.10
2023-04-26T07:13:23.568Z,8.10
2023-04-26T07:15:52.310Z,8.10
2023-04-26T07:18:20.495Z,8.10
2023-04-26T07:20:50.001Z,8.20
2023-04-26T07:23:18.021Z,8.30
2023-04-26T07:25:46.054Z,8.30
2023-04-26T07:28:14.542Z,8.40
2023-04-26T07:30:43.359Z,8.60
2023-04-26T07:33:11.524Z,8.80
2023-04-26T07:35:39.628Z,8.90
2023-04-26T07:38:09.130Z,9.00
2023-04-26T07:40:37.530Z,9.20
2023-04-26T07:43:05.831Z,9.20
2023-04-26T07:45:34.244Z,9.20
2023-04-26T07:48:02.470Z,9.30
2023-04-26T07:50:30.637Z,9.50
2023-04-26T07:52:58.727Z,9.60
2023-04-26T07:55:28.485Z,9.70
2023-04-26T07:57:56.657Z,9.80
2023-04-26T08:00:25.475Z,9.70
2023-04-26T08:02:53.676Z,9.80
2023-04-26T08:05:22.230Z,9.80
2023-04-26T08:07:50.334Z,9.80
2023-04-26T08:10:18.566Z,9.90
2023-04-26T08:12:47.980Z,9.90
2023-04-26T08:15:16.204Z,10.10
2023-04-26T08:17:44.362Z,10.40
2023-04-26T08:20:13.036Z,10.70
2023-04-26T08:22:41.071Z,10.90
2023-04-26T08:25:09.744Z,11.10
2023-04-26T08:27:37.955Z,11.30
2023-04-26T08:30:08.888Z,11.20
2023-04-26T08:32:36.948Z,11.30
2023-04-26T08:35:05.814Z,11.50
2023-04-26T08:37:34.039Z,11.30
2023-04-26T08:40:02.103Z,11.60
2023-04-26T08:42:30.259Z,11.70
2023-04-26T08:45:01.878Z,11.80
2023-04-26T08:47:37.181Z,12.00
2023-04-26T08:50:06.750Z,12.10
2023-04-26T08:52:36.363Z,12.30
2023-04-26T08:55:06.362Z,12.50
2023-04-26T08:57:34.882Z,12.70
2023-04-26T09:00:05.632Z,12.90
2023-04-26T09:02:36.601Z,12.90
2023-04-26T09:05:07.006Z,13.10
2023-04-26T09:07:44.460Z,13.10
2023-04-26T09:10:13.676Z,13.10
2023-04-26T09:12:42.082Z,13.10
2023-04-26T09:15:11.532Z,13.50
2023-04-26T09:17:42.182Z,13.80
2023-04-26T09:20:22.141Z,14.00
2023-04-26T09:22:50.887Z,14.20
2023-04-26T09:25:19.957Z,14.20
2023-04-26T09:27:48.104Z,14.40
2023-04-26T09:30:18.542Z,14.60
2023-04-26T09:32:53.914Z,14.80
2023-04-26T09:35:28.690Z,14.70
2023-04-26T09:38:05.624Z,14.90
2023-04-26T09:40:38.461Z,15.00
2023-04-26T09:43:08.869Z,15.30
2023-04-26T09:45:46.470Z,15.40
2023-04-26T09:48:22.336Z,15.60
2023-04-26T09:50:53.331Z,15.60
2023-04-26T09:53:34.355Z,15.30
2023-04-26T09:56:10.138Z,15.30
2023-04-26T09:58:39.786Z,15.50
2023-04-26T10:01:10.027Z,15.40
2023-04-26T10:03:39.933Z,15.50
2023-04-26T10:06:08.826Z,15.70
2023-04-26T10:08:37.423Z,15.90
2023-04-26T10:11:07.572Z,16.10
2023-04-26T10:13:36.164Z,16.30
2023-04-26T10:16:04.913Z,16.40
2023-04-26T10:18:33.661Z,16.60
2023-04-26T10:21:07.477Z,16.80
2023-04-26T10:23:36.710Z,16.30
2023-04-26T10:26:05.235Z,16.50
2023-04-26T10:29:02.517Z,16.80
2023-04-26T10:32:03.968Z,17.30
2023-04-26T10:34:33.649Z,17.50
2023-04-26T10:37:13.572Z,17.50
2023-04-26T10:39:42.875Z,17.60
2023-04-26T10:42:26.537Z,18.00
2023-04-26T10:44:56.105Z,18.20
2023-04-26T10:47:26.941Z,18.20
2023-04-26T10:50:05.644Z,18.30
2023-04-26T10:52:36.070Z,18.40
2023-04-26T10:55:06.184Z,18.20
2023-04-26T10:57:54.272Z,18.10
2023-04-26T11:00:31.649Z,18.10
2023-04-26T11:03:04.281Z,18.10
2023-04-26T11:05:55.592Z,17.80
2023-04-26T11:08:30.279Z,17.60
2023-04-26T11:11:11.921Z,17.70
2023-04-26T11:13:41.652Z,18.10
2023-04-26T11:16:11.051Z,18.40
2023-04-26T11:18:42.032Z,18.50
2023-04-26T11:21:11.197Z,18.60
2023-04-26T11:23:40.747Z,18.90
2023-04-26T11:26:09.869Z,19.00
2023-04-26T11:28:39.873Z,18.90
2023-04-26T11:31:08.731Z,19.10
2023-04-26T11:33:36.978Z,19.30
2023-04-26T11:36:05.512Z,19.40
2023-04-26T11:38:33.571Z,19.20
2023-04-26T11:41:04.467Z,19.10
2023-04-26T11:43:36.762Z,19.10
2023-04-26T11:46:06.711Z,19.50
2023-04-26T11:48:36.702Z,19.70
2023-04-26T11:51:06.189Z,19.50
2023-04-26T11:53:38.727Z,19.40
2023-04-26T11:56:16.671Z,18.90
2023-04-26T11:58:48.812Z,18.40
2023-04-26T12:01:24.321Z,17.80
2023-04-26T12:03:54.258Z,17.80
2023-04-26T12:06:30.235Z,18.00
2023-04-26T12:08:58.786Z,18.20
2023-04-26T12:11:28.240Z,18.20
2023-04-26T12:13:59.495Z,17.90
2023-04-26T12:16:27.649Z,18.10
2023-04-26T12:18:57.071Z,18.20
2023-04-26T12:21:28.132Z,18.20
2023-04-26T12:23:57.868Z,18.20
2023-04-26T12:26:43.622Z,18.40
2023-04-26T12:29:11.710Z,18.50
2023-04-26T12:31:39.986Z,18.80
2023-04-26T12:34:08.847Z,19.30
2023-04-26T12:36:36.898Z,19.70
2023-04-26T12:39:05.474Z,19.90
2023-04-26T12:41:33.673Z,20.20
2023-04-26T12:44:03.085Z,20.20
2023-04-26T12:46:31.538Z,20.20
2023-04-26T12:48:59.589Z,20.30
2023-04-26T12:51:27.612Z,20.70
2023-04-26T12:53:55.721Z,20.80
2023-04-26T12:56:23.964Z,20.50
2023-04-26T12:58:52.086Z,20.40
2023-04-26T13:01:21.590Z,20.50
2023-04-26T13:03:49.932Z,20.40
2023-04-26T13:06:18.325Z,20.80
2023-04-26T13:08:46.381Z,21.20
2023-04-26T13:11:14.795Z,21.50
2023-04-26T13:13:44.559Z,21.00
2023-04-26T13:16:13.539Z,20.50
2023-04-26T13:18:43.052Z,19.90
2023-04-26T13:21:11.159Z,19.50
2023-04-26T13:23:39.171Z,19.10
2023-04-26T13:26:07.310Z,18.90
2023-04-26T13:28:37.136Z,18.60
2023-04-26T13:31:05.390Z,18.50
2023-04-26T13:33:33.829Z,18.20
2023-04-26T13:36:03.261Z,18.10
2023-04-26T13:38:32.940Z,18.10
2023-04-26T13:41:01.360Z,18.20
2023-04-26T13:43:29.393Z,18.50
2023-04-26T13:45:57.554Z,18.90
2023-04-26T13:48:25.744Z,19.00
2023-04-26T13:50:53.897Z,19.10
2023-04-26T13:53:23.550Z,19.20
2023-04-26T13:55:51.651Z,19.20
2023-04-26T13:58:19.729Z,19.40
2023-04-26T14:00:47.880Z,19.60
2023-04-26T14:03:16.347Z,19.40
2023-04-26T14:05:44.580Z,19.10
2023-04-26T14:08:12.864Z,19.30
2023-04-26T14:10:42.398Z,19.40
2023-04-26T14:13:10.517Z,19.50
2023-04-26T14:15:38.597Z,19.20
2023-04-26T14:18:06.845Z,18.50
2023-04-26T14:20:34.905Z,18.60
2023-04-26T14:23:03.023Z,18.70
2023-04-26T14:25:31.160Z,18.90
2023-04-26T14:28:00.748Z,19.00
2023-04-26T14:30:29.830Z,19.10
2023-04-26T14:32:57.915Z,18.90
2023-04-26T14:35:26.301Z,18.80
2023-04-26T14:37:54.357Z,18.40
2023-04-26T14:40:22.615Z,18.50
2023-04-26T14:42:50.656Z,18.30
2023-04-26T14:45:22.262Z,18.50
2023-04-26T14:47:53.620Z,18.70
2023-04-26T14:50:21.758Z,18.50
2023-04-26T14:52:49.775Z,18.50
2023-04-26T14:55:22.459Z,18.70
2023-04-26T14:57:50.622Z,18.30
2023-04-26T15:00:20.848Z,18.30
2023-04-26T15:02:49.147Z,18.10
2023-04-26T15:05:17.845Z,17.90
2023-04-26T15:07:45.914Z,17.80
2023-04-26T15:10:13.932Z,17.80
2023-04-26T15:12:42.005Z,17.80
2023-04-26T15:15:10.490Z,17.70
2023-04-26T15:17:40.001Z,17.50
2023-04-26T15:20:09.412Z,17.30
2023-04-26T15:22:39.071Z,17.20
2023-04-26T15:25:09.058Z,17.20
2023-04-26T15:27:37.257Z,17.00
2023-04-26T15:30:06.042Z,17.00
2023-04-26T15:32:34.114Z,17.20
2023-04-26T15:35:04.180Z,17.20
2023-04-26T15:37:32.258Z,17.30
2023-04-26T15:40:00.367Z,17.30
2023-04-26T15:42:28.498Z,17.40
2023-04-26T15:44:56.772Z,17.30
2023-04-26T15:47:24.840Z,17.10
2023-04-26T15:49:54.753Z,17.00
2023-04-26T15:52:24.129Z,16.90
2023-04-26T15:54:52.174Z,16.70
2023-04-26T15:57:20.192Z,16.60
2023-04-26T15:59:48.255Z,16.40
2023-04-26T16:02:16.390Z,16.20
2023-04-26T16:04:44.676Z,16.30
2023-04-26T16:07:12.840Z,16.40
2023-04-26T16:09:42.519Z,16.40
2023-04-26T16:12:10.589Z,16.40
2023-04-26T16:14:38.784Z,16.40
2023-04-26T16:17:06.840Z,16.40
2023-04-26T16:19:34.851Z,16.40
2023-04-26T16:22:02.935Z,16.50
2023-04-26T16:24:30.969Z,16.50
2023-04-26T16:27:00.408Z,16.50
2023-04-26T16:29:28.475Z,16.40
2023-04-26T16:31:56.834Z,16.20
2023-04-26T16:34:26.803Z,16.30
2023-04-26T16:36:54.874Z,16.20
2023-04-26T16:39:23.568Z,16.20
2023-04-26T16:41:54.133Z,16.20
2023-04-26T16:44:24.610Z,16.10
2023-04-26T16:46:52.684Z,16.10
2023-04-26T16:49:21.089Z,16.00
2023-04-26T16:51:53.685Z,15.90
2023-04-26T16:54:21.918Z,15.90
2023-04-26T16:56:50.166Z,15.70
2023-04-26T16:59:18.337Z,15.70
2023-04-26T17:01:50.769Z,15.60
2023-04-26T17:04:19.202Z,15.40
2023-04-26T17:06:47.418Z,15.30
2023-04-26T17:09:15.714Z,15.30
2023-04-26T17:11:44.824Z,15.40
2023-04-26T17:14:12.882Z,15.30
2023-04-26T17:16:41.240Z,15.30
2023-04-26T17:19:10.848Z,15.20
2023-04-26T17:21:38.882Z,15.10
2023-04-26T17:24:07.791Z,15.10
2023-04-26T17:26:35.847Z,14.90
2023-04-26T17:29:03.857Z,14.70
2023-04-26T17:31:31.990Z,14.70
2023-04-26T17:34:00.566Z,14.70
2023-04-26T17:36:31.899Z,14.70
2023-04-26T17:38:59.939Z,14.70
2023-04-26T17:41:27.997Z,14.70
2023-04-26T17:43:56.035Z,14.60
2023-04-26T17:46:24.125Z,14.50
2023-04-26T17:48:52.192Z,14.40
2023-04-26T17:51:20.243Z,14.30
2023-04-26T17:53:49.696Z,14.20
2023-04-26T17:56:17.759Z,14.10
2023-04-26T17:58:45.870Z,14.00
2023-04-26T18:01:13.924Z,13.80
2023-04-26T18:03:42.114Z,13.90
2023-04-26T18:06:10.292Z,13.90
2023-04-26T18:08:38.567Z,13.80
2023-04-26T18:11:07.977Z,13.70
2023-04-26T18:13:36.133Z,13.70
2023-04-26T18:16:04.206Z,13.60
2023-04-26T18:18:32.239Z,13.50
2023-04-26T18:21:00.469Z,13.50
2023-04-26T18:23:28.590Z,13.40
2023-04-26T18:25:56.686Z,13.30
2023-04-26T18:28:26.758Z,13.30
